Time;durP1;ratioP1;P1;durP2;ratioP2;P2;SDS_P1;SDS_P2;PMS_P1;PMS_P2;Temp;Humidity;BMP_temperature;BMP_pressure;BME280_temperature;BME280_humidity;BME280_pressure;Samples;Min_cycle;Max_cycle;Signal;HPM_P1;HPM_P2
2023/07/14 00:00:08;;;;;;;4.10;2.10;;;18.40;90.60;;;;;;5087578;28;20453;-72
2023/07/14 00:02:37;;;;;;;5.37;1.87;;;18.50;91.30;;;;;;5069900;28;20755;-72
2023/07/14 00:05:04;;;;;;;5.10;2.20;;;18.50;91.50;;;;;;5075088;28;20532;-71
2023/07/14 00:07:30;;;;;;;2.83;2.40;;;18.50;91.50;;;;;;5086436;28;20190;-71
2023/07/14 00:09:55;;;;;;;3.10;1.90;;;18.50;91.90;;;;;;5094637;28;20482;-72
2023/07/14 00:12:21;;;;;;;2.67;1.93;;;18.50;92.50;;;;;;5095275;28;20266;-72
2023/07/14 00:14:47;;;;;;;2.80;1.97;;;18.50;92.70;;;;;;5090251;28;20225;-72
2023/07/14 00:17:14;;;;;;;2.97;2.30;;;18.40;93.10;;;;;;5054463;28;20190;-72
2023/07/14 00:19:39;;;;;;;3.43;2.80;;;18.40;93.40;;;;;;5076887;28;20452;-71
2023/07/14 00:22:14;;;;;;;5.73;2.50;;;18.40;93.60;;;;;;5094839;28;20428;-71
2023/07/14 00:24:44;;;;;;;3.53;2.33;;;18.40;94.40;;;;;;5095292;28;20264;-71
2023/07/14 00:27:18;;;;;;;6.77;2.63;;;18.30;95.00;;;;;;5094517;28;20416;-71
2023/07/14 00:29:45;;;;;;;3.77;2.13;;;18.30;95.60;;;;;;5092697;28;20459;-72
2023/07/14 00:32:17;;;;;;;5.07;2.30;;;18.20;96.30;;;;;;5038798;28;20416;-71
2023/07/14 00:34:43;;;;;;;5.20;2.53;;;18.10;97.00;;;;;;5054734;28;20480;-72
2023/07/14 00:37:10;;;;;;;5.50;2.60;;;18.00;97.60;;;;;;5074349;28;20424;-71
2023/07/14 00:39:36;;;;;;;3.63;2.10;;;18.00;98.40;;;;;;5080365;28;20893;-71
2023/07/14 00:42:03;;;;;;;5.67;2.80;;;17.90;98.80;;;;;;5098248;28;20422;-70
2023/07/14 00:44:30;;;;;;;5.50;1.90;;;17.90;99.20;;;;;;5079312;28;20197;-71
2023/07/14 00:46:56;;;;;;;3.80;1.70;;;17.90;99.50;;;;;;5069306;28;20424;-71
2023/07/14 00:49:30;;;;;;;2.43;2.00;;;17.90;99.80;;;;;;5080000;28;20464;-71
2023/07/14 00:52:08;;;;;;;6.17;3.20;;;17.90;99.90;;;;;;5079956;28;20300;-71
2023/07/14 00:54:34;;;;;;;3.30;2.17;;;17.90;99.90;;;;;;5098886;28;20415;-72
2023/07/14 00:57:00;;;;;;;4.47;2.17;;;17.90;99.90;;;;;;5098280;28;20417;-70
2023/07/14 00:59:33;;;;;;;3.27;2.30;;;17.80;99.90;;;;;;5079599;28;20517;-69
2023/07/14 01:02:11;;;;;;;3.93;2.13;;;17.80;99.90;;;;;;5054650;28;20435;-71
2023/07/14 01:04:43;;;;;;;6.80;2.17;;;17.70;99.90;;;;;;5068131;28;20544;-73
2023/07/14 01:07:11;;;;;;;1.80;1.60;;;17.70;99.90;;;;;;5098296;28;20459;-71
2023/07/14 01:09:38;;;;;;;2.67;1.90;;;17.60;99.90;;;;;;5097296;28;20462;-71
2023/07/14 01:12:06;;;;;;;3.17;1.83;;;17.60;99.90;;;;;;5097541;28;20513;-69
2023/07/14 01:14:37;;;;;;;5.87;2.17;;;17.60;99.90;;;;;;5096521;28;20414;-71
2023/07/14 01:17:04;;;;;;;1.60;1.50;;;17.50;99.90;;;;;;5059481;28;20427;-71
2023/07/14 01:19:51;;;;;;;3.93;1.40;;;17.50;99.90;;;;;;5060758;28;20434;-71
2023/07/14 01:22:40;;;;;;;2.70;1.60;;;17.40;99.90;;;;;;5097594;28;20419;-71
2023/07/14 01:25:36;;;;;;;2.07;1.73;;;17.40;99.90;;;;;;5098120;28;20414;-71
2023/07/14 01:28:13;;;;;;;2.60;1.87;;;17.40;99.90;;;;;;5079160;28;20510;-70
2023/07/14 01:30:41;;;;;;;3.70;1.90;;;17.30;99.90;;;;;;5088581;28;20918;-70
2023/07/14 01:33:16;;;;;;;3.10;1.97;;;17.30;99.90;;;;;;5077164;28;20465;-72
2023/07/14 01:35:48;;;;;;;2.17;1.57;;;17.30;99.90;;;;;;5059644;28;20188;-71
2023/07/14 01:38:15;;;;;;;2.33;1.50;;;17.30;99.90;;;;;;5078732;28;20499;-70
2023/07/14 01:40:40;;;;;;;1.70;1.50;;;17.30;99.90;;;;;;5078780;28;20477;-70
2023/07/14 01:43:08;;;;;;;2.20;1.63;;;17.30;99.90;;;;;;5096969;28;20446;-70
2023/07/14 01:45:44;;;;;;;2.30;1.50;;;17.30;99.90;;;;;;5082011;28;20276;-70
2023/07/14 01:48:14;;;;;;;3.17;1.70;;;17.30;99.90;;;;;;5038831;28;20423;-71
2023/07/14 01:50:50;;;;;;;1.87;1.37;;;17.40;99.90;;;;;;5082155;28;20557;-71
2023/07/14 01:53:30;;;;;;;1.93;1.47;;;17.40;99.90;;;;;;5097247;28;20418;-71
2023/07/14 01:55:59;;;;;;;2.27;1.60;;;17.40;99.90;;;;;;5097036;28;20437;-71
2023/07/14 01:58:35;;;;;;;3.13;1.70;;;17.40;99.90;;;;;;5096482;28;20406;-70
2023/07/14 02:01:03;;;;;;;2.63;1.93;;;17.40;99.90;;;;;;5055926;28;20446;-71
2023/07/14 02:03:43;;;;;;;3.03;1.80;;;17.40;99.90;;;;;;5052788;28;20469;-72
2023/07/14 02:06:09;;;;;;;1.93;1.60;;;17.40;99.90;;;;;;5096692;28;20430;-70
2023/07/14 02:08:35;;;;;;;1.77;1.30;;;17.30;99.90;;;;;;5096184;28;20418;-71
2023/07/14 02:11:00;;;;;;;3.27;1.70;;;17.30;99.90;;;;;;5078434;28;20242;-72
2023/07/14 02:13:27;;;;;;;2.70;1.83;;;17.30;99.90;;;;;;5096642;28;20540;-71
2023/07/14 02:15:54;;;;;;;3.10;2.50;;;17.20;99.90;;;;;;5083424;28;20253;-71
2023/07/14 02:18:25;;;;;;;2.70;1.57;;;17.20;99.90;;;;;;5069717;28;20430;-71
2023/07/14 02:20:53;;;;;;;2.80;1.87;;;17.10;99.90;;;;;;5077692;28;20454;-71
2023/07/14 02:23:21;;;;;;;2.03;1.73;;;17.00;99.90;;;;;;5096583;28;20430;-71
2023/07/14 02:26:05;;;;;;;3.40;2.17;;;17.00;99.90;;;;;;5096862;28;20734;-71
2023/07/14 02:28:31;;;;;;;7.63;2.00;;;16.90;99.90;;;;;;5095573;28;20506;-71
2023/07/14 02:31:10;;;;;;;2.10;1.77;;;16.90;99.90;;;;;;5077513;28;20595;-70
2023/07/14 02:33:38;;;;;;;4.77;2.30;;;16.80;99.90;;;;;;5095830;28;20448;-71
2023/07/14 02:36:22;;;;;;;3.27;2.43;;;16.80;99.90;;;;;;5096122;28;20464;-70
2023/07/14 02:38:47;;;;;;;2.00;1.50;;;16.70;99.90;;;;;;5078007;28;20510;-71
2023/07/14 02:41:31;;;;;;;2.97;2.10;;;16.70;99.90;;;;;;5095725;28;20430;-71
2023/07/14 02:44:02;;;;;;;2.90;2.00;;;16.60;99.90;;;;;;5096042;28;20196;-70
2023/07/14 02:46:37;;;;;;;2.50;1.40;;;16.60;99.90;;;;;;5067130;28;20690;-70
2023/07/14 02:49:04;;;;;;;2.97;1.60;;;16.60;99.90;;;;;;5095648;28;20493;-70
2023/07/14 02:51:30;;;;;;;3.53;1.90;;;16.60;99.90;;;;;;5095723;28;20446;-69
2023/07/14 02:53:56;;;;;;;2.40;1.93;;;16.50;99.90;;;;;;5095962;28;20491;-70
2023/07/14 02:56:21;;;;;;;2.70;1.90;;;16.50;99.90;;;;;;5095753;28;20393;-71
2023/07/14 02:58:49;;;;;;;2.90;2.00;;;16.40;99.90;;;;;;5077068;28;20191;-71
2023/07/14 03:01:17;;;;;;;4.13;1.40;;;16.40;99.90;;;;;;5064316;28;20209;-71
2023/07/14 03:03:47;;;;;;;2.23;1.60;;;16.40;99.90;;;;;;5070424;28;20468;-71
2023/07/14 03:06:15;;;;;;;3.07;2.13;;;16.30;99.90;;;;;;5096361;28;20415;-72
2023/07/14 03:08:40;;;;;;;1.97;1.23;;;16.30;99.90;;;;;;5095293;28;20756;-72
2023/07/14 03:11:06;;;;;;;2.80;1.80;;;16.30;99.90;;;;;;5095219;28;20478;-71
2023/07/14 03:13:32;;;;;;;4.23;1.60;;;16.30;99.90;;;;;;5077451;28;20179;-71
2023/07/14 03:15:57;;;;;;;3.60;2.30;;;16.30;99.90;;;;;;5051687;28;20784;-70
2023/07/14 03:18:23;;;;;;;2.10;1.90;;;16.30;99.90;;;;;;5084125;28;20511;-70
2023/07/14 03:20:59;;;;;;;2.70;1.80;;;16.30;99.90;;;;;;5094750;28;20287;-71
2023/07/14 03:23:25;;;;;;;2.73;1.60;;;16.20;99.90;;;;;;5095457;28;20800;-70
2023/07/14 03:25:55;;;;;;;3.80;2.40;;;16.20;99.90;;;;;;5095139;28;20422;-72
2023/07/14 03:28:21;;;;;;;3.30;2.27;;;16.20;99.90;;;;;;5077943;28;20196;-72
2023/07/14 03:30:47;;;;;;;3.70;2.30;;;16.20;99.90;;;;;;5058071;28;20460;-71
2023/07/14 03:33:13;;;;;;;4.90;2.70;;;16.10;99.90;;;;;;5047590;28;20429;-70
2023/07/14 03:35:38;;;;;;;3.00;2.00;;;16.10;99.90;;;;;;5095205;28;20399;-70
2023/07/14 03:38:04;;;;;;;2.87;1.70;;;16.10;99.90;;;;;;5095641;28;20254;-70
2023/07/14 03:40:30;;;;;;;2.27;1.97;;;16.00;99.90;;;;;;5094313;28;20619;-71
2023/07/14 03:42:56;;;;;;;2.30;2.10;;;16.00;99.90;;;;;;5095263;28;20755;-71
2023/07/14 03:45:22;;;;;;;2.30;1.90;;;16.00;99.90;;;;;;5065782;28;20421;-71
2023/07/14 03:47:48;;;;;;;3.00;1.77;;;16.00;99.90;;;;;;5037593;28;20700;-70
2023/07/14 03:50:14;;;;;;;3.90;2.10;;;16.00;99.90;;;;;;5061612;28;20458;-72
2023/07/14 03:52:41;;;;;;;3.50;1.90;;;16.00;99.90;;;;;;5094639;28;20474;-71
2023/07/14 03:55:09;;;;;;;6.13;2.30;;;16.00;99.90;;;;;;5098707;28;20190;-71
2023/07/14 03:57:35;;;;;;;3.13;1.80;;;16.00;99.90;;;;;;5102155;28;20403;-72
2023/07/14 04:00:12;;;;;;;2.60;2.00;;;16.00;99.90;;;;;;5094328;28;20454;-71
2023/07/14 04:02:45;;;;;;;2.10;1.83;;;16.00;99.90;;;;;;5086086;28;20176;-72
2023/07/14 04:05:13;;;;;;;2.90;1.97;;;16.00;99.90;;;;;;5081588;28;20604;-69
2023/07/14 04:07:40;;;;;;;2.00;1.73;;;16.00;99.90;;;;;;5082110;28;20414;-70
2023/07/14 04:10:08;;;;;;;1.90;1.53;;;16.10;99.90;;;;;;5103625;28;20469;-72
2023/07/14 04:12:35;;;;;;;3.80;2.47;;;16.10;99.90;;;;;;5105095;28;20451;-72
2023/07/14 04:15:01;;;;;;;2.50;2.00;;;16.10;99.90;;;;;;5092159;28;20430;-72
2023/07/14 04:17:29;;;;;;;2.50;2.00;;;16.20;99.90;;;;;;5081705;28;20494;-72
2023/07/14 04:19:54;;;;;;;2.80;2.00;;;16.20;99.90;;;;;;5105660;28;20209;-72
2023/07/14 04:22:20;;;;;;;2.63;1.90;;;16.20;99.90;;;;;;5088990;28;20445;-71
2023/07/14 04:24:46;;;;;;;4.37;2.40;;;16.30;99.90;;;;;;5081577;28;20172;-70
2023/07/14 04:27:12;;;;;;;3.47;2.83;;;16.30;99.90;;;;;;5098824;28;20223;-71
2023/07/14 04:29:39;;;;;;;4.80;2.00;;;16.30;99.90;;;;;;5096613;28;20598;-71
2023/07/14 04:32:06;;;;;;;3.10;2.60;;;16.30;99.90;;;;;;5064967;28;20876;-71
2023/07/14 04:34:32;;;;;;;3.60;2.50;;;16.30;99.90;;;;;;5076191;28;20418;-69
2023/07/14 04:36:58;;;;;;;4.30;2.10;;;16.40;99.90;;;;;;5098286;28;20418;-71
2023/07/14 04:39:25;;;;;;;2.97;2.37;;;16.50;99.90;;;;;;5098064;28;20537;-71
2023/07/14 04:41:50;;;;;;;3.57;2.87;;;16.50;99.90;;;;;;5098404;28;20200;-71
2023/07/14 04:44:16;;;;;;;2.97;2.67;;;16.60;99.90;;;;;;5098910;28;20422;-71
2023/07/14 04:46:44;;;;;;;3.30;2.40;;;16.70;99.90;;;;;;5078837;28;20217;-72
2023/07/14 04:49:11;;;;;;;4.27;2.30;;;16.70;99.90;;;;;;5098131;28;20733;-72
2023/07/14 04:51:37;;;;;;;5.83;2.67;;;16.80;99.90;;;;;;5097627;28;20417;-71
2023/07/14 04:54:04;;;;;;;3.10;2.03;;;16.90;99.90;;;;;;5098124;28;20415;-72
2023/07/14 04:56:30;;;;;;;8.73;3.47;;;17.00;99.90;;;;;;5098002;28;20542;-70
2023/07/14 04:58:56;;;;;;;3.30;2.13;;;17.30;99.90;;;;;;5098162;28;20407;-73
2023/07/14 05:01:22;;;;;;;4.27;2.40;;;17.90;99.90;;;;;;5083803;28;20753;-71
2023/07/14 05:03:47;;;;;;;3.67;2.17;;;18.60;99.90;;;;;;5068129;28;20205;-73
2023/07/14 05:06:14;;;;;;;3.13;2.10;;;19.10;97.10;;;;;;5094316;28;20441;-74
2023/07/14 05:08:40;;;;;;;3.47;1.90;;;19.60;92.90;;;;;;5086312;28;20254;-72
2023/07/14 05:11:06;;;;;;;3.20;2.03;;;20.10;90.00;;;;;;5102715;28;20962;-72
2023/07/14 05:13:33;;;;;;;4.30;2.53;;;20.40;83.10;;;;;;5103811;28;20464;-71
2023/07/14 05:15:58;;;;;;;3.93;1.90;;;20.70;78.80;;;;;;5066326;28;20546;-74
2023/07/14 05:18:25;;;;;;;3.17;2.20;;;20.90;75.90;;;;;;5064613;28;20499;-74
2023/07/14 05:20:52;;;;;;;5.40;2.80;;;21.10;73.00;;;;;;5070160;28;20259;-73
2023/07/14 05:23:18;;;;;;;4.37;2.60;;;21.20;70.20;;;;;;5101905;28;20410;-75
2023/07/14 05:25:45;;;;;;;3.33;2.10;;;21.50;68.80;;;;;;5103389;28;20464;-71
2023/07/14 05:28:10;;;;;;;4.63;2.67;;;21.80;67.10;;;;;;5103511;28;20214;-74
2023/07/14 05:30:36;;;;;;;4.90;3.70;;;22.00;64.90;;;;;;5099041;28;20925;-71
2023/07/14 05:33:02;;;;;;;6.03;3.00;;;22.20;63.40;;;;;;5104270;28;20175;-73
2023/07/14 05:35:28;;;;;;;4.47;3.53;;;22.50;62.00;;;;;;5071187;28;20272;-72
2023/07/14 05:37:56;;;;;;;2.70;2.03;;;22.60;60.00;;;;;;5104151;28;20439;-74
2023/07/14 05:40:22;;;;;;;4.20;2.50;;;22.90;60.60;;;;;;5068493;28;20212;-74
2023/07/14 05:42:48;;;;;;;3.90;2.40;;;23.20;58.90;;;;;;5103265;28;20383;-74
2023/07/14 05:45:14;;;;;;;4.80;2.23;;;23.40;57.90;;;;;;5096004;28;20227;-74
2023/07/14 05:47:47;;;;;;;5.80;2.73;;;23.60;57.20;;;;;;5032458;28;20417;-72
2023/07/14 05:50:13;;;;;;;6.33;2.60;;;23.90;57.10;;;;;;5074733;28;20462;-73
2023/07/14 05:52:39;;;;;;;4.17;2.70;;;24.10;55.50;;;;;;5086185;28;20472;-74
2023/07/14 05:55:05;;;;;;;5.43;3.23;;;24.20;55.20;;;;;;5090499;28;20427;-72
2023/07/14 05:57:32;;;;;;;3.33;2.47;;;24.40;54.50;;;;;;5102465;28;20444;-72
2023/07/14 05:59:58;;;;;;;4.60;2.47;;;24.50;54.20;;;;;;5081802;28;20435;-73
2023/07/14 06:02:23;;;;;;;4.23;2.43;;;24.50;53.70;;;;;;5079305;28;20919;-73
2023/07/14 06:04:49;;;;;;;3.90;2.13;;;24.40;53.40;;;;;;5035489;28;20489;-71
2023/07/14 06:07:15;;;;;;;2.13;1.73;;;24.50;53.30;;;;;;5105922;28;20195;-73
2023/07/14 06:09:41;;;;;;;3.63;2.27;;;24.70;53.20;;;;;;5070504;28;20264;-73
2023/07/14 06:12:09;;;;;;;3.73;2.53;;;24.80;52.40;;;;;;5086879;28;20180;-73
2023/07/14 06:14:37;;;;;;;4.60;2.10;;;24.80;52.20;;;;;;5081702;28;20714;-74
2023/07/14 06:17:04;;;;;;;4.77;2.17;;;24.90;52.00;;;;;;5074785;28;20406;-72
2023/07/14 06:19:29;;;;;;;3.40;2.20;;;25.10;51.60;;;;;;5105563;28;20511;-73
2023/07/14 06:21:56;;;;;;;8.93;3.13;;;25.20;51.20;;;;;;5085767;28;20419;-72
2023/07/14 06:24:23;;;;;;;6.40;2.63;;;25.40;51.00;;;;;;5085280;28;20188;-73
2023/07/14 06:26:49;;;;;;;4.03;2.70;;;25.50;50.00;;;;;;5085202;28;20728;-73
2023/07/14 06:29:14;;;;;;;2.93;2.43;;;25.60;49.60;;;;;;5069854;28;20510;-72
2023/07/14 06:31:40;;;;;;;4.43;2.50;;;25.60;49.00;;;;;;5066682;28;20713;-73
2023/07/14 06:34:06;;;;;;;4.57;2.53;;;25.80;49.00;;;;;;5085692;28;20565;-76
2023/07/14 06:36:32;;;;;;;3.90;2.60;;;26.00;48.60;;;;;;5086675;28;20183;-74
2023/07/14 06:38:58;;;;;;;3.20;2.27;;;26.30;48.20;;;;;;5071184;28;20184;-74
2023/07/14 06:41:23;;;;;;;3.80;2.33;;;26.50;47.30;;;;;;5088038;28;20195;-75
2023/07/14 06:43:49;;;;;;;2.83;1.90;;;26.60;46.80;;;;;;5106564;28;20229;-75
2023/07/14 06:46:14;;;;;;;4.90;2.10;;;26.50;46.60;;;;;;5081514;28;20248;-74
2023/07/14 06:48:40;;;;;;;4.10;2.00;;;26.30;46.30;;;;;;5062173;28;20188;-74
2023/07/14 06:51:08;;;;;;;4.73;2.07;;;26.10;46.50;;;;;;5068527;28;20243;-76
2023/07/14 06:53:34;;;;;;;3.57;2.17;;;25.90;46.70;;;;;;5085595;28;20188;-76
2023/07/14 06:56:00;;;;;;;4.00;2.50;;;25.80;47.20;;;;;;5104443;28;20433;-73
2023/07/14 06:58:26;;;;;;;2.90;2.50;;;25.70;47.30;;;;;;5084214;28;20188;-73
2023/07/14 07:00:51;;;;;;;3.60;2.17;;;25.40;47.90;;;;;;5064899;28;20244;-73
2023/07/14 07:03:17;;;;;;;3.53;1.67;;;25.20;48.20;;;;;;5081710;28;20199;-74
2023/07/14 07:05:44;;;;;;;5.77;2.00;;;24.90;48.40;;;;;;5095743;28;20511;-73
2023/07/14 07:08:11;;;;;;;2.90;1.83;;;24.70;49.10;;;;;;5102047;28;20196;-73
2023/07/14 07:10:40;;;;;;;5.50;3.03;;;24.50;49.50;;;;;;5085700;28;20473;-73
2023/07/14 07:13:05;;;;;;;2.80;2.20;;;24.30;50.20;;;;;;5085643;28;20398;-75
2023/07/14 07:15:31;;;;;;;15.43;3.00;;;24.40;50.40;;;;;;5089028;28;20432;-72
2023/07/14 07:17:57;;;;;;;4.10;2.10;;;24.40;50.40;;;;;;5060856;28;20195;-75
2023/07/14 07:20:22;;;;;;;3.43;2.40;;;24.60;50.70;;;;;;5086627;28;20485;-74
2023/07/14 07:22:48;;;;;;;4.37;2.50;;;24.90;50.20;;;;;;5068231;28;20184;-74
2023/07/14 07:25:13;;;;;;;4.03;2.60;;;25.20;49.80;;;;;;5085529;28;20202;-73
2023/07/14 07:27:39;;;;;;;3.40;2.20;;;25.40;49.60;;;;;;5102619;28;20176;-73
2023/07/14 07:30:05;;;;;;;4.73;2.33;;;25.30;49.80;;;;;;5099824;28;20250;-75
2023/07/14 07:32:31;;;;;;;4.70;3.40;;;25.40;50.20;;;;;;5082962;28;20181;-74
2023/07/14 07:34:59;;;;;;;3.60;2.70;;;25.40;49.60;;;;;;5098902;28;20450;-74
2023/07/14 07:37:26;;;;;;;3.87;2.30;;;25.30;49.40;;;;;;5104315;28;20220;-73
2023/07/14 07:39:54;;;;;;;5.50;2.63;;;25.30;49.40;;;;;;5104536;28;20441;-72
2023/07/14 07:42:20;;;;;;;5.93;2.30;;;25.00;49.50;;;;;;5103776;28;20370;-74
2023/07/14 07:44:46;;;;;;;5.70;3.00;;;24.80;50.20;;;;;;5081827;28;20438;-74
2023/07/14 07:47:12;;;;;;;3.67;2.70;;;24.70;50.50;;;;;;5084040;28;20509;-73
2023/07/14 07:49:38;;;;;;;3.70;2.60;;;24.60;51.00;;;;;;5088998;28;20224;-74
2023/07/14 07:52:05;;;;;;;4.17;2.43;;;24.50;51.40;;;;;;5108193;28;20441;-75
2023/07/14 07:54:30;;;;;;;3.33;2.37;;;24.50;50.90;;;;;;5105774;28;20418;-75
2023/07/14 07:56:56;;;;;;;4.20;2.33;;;24.40;50.80;;;;;;5109292;28;20389;-76
2023/07/14 07:59:22;;;;;;;5.50;3.10;;;24.40;51.00;;;;;;5076254;28;20259;-75
2023/07/14 08:01:47;;;;;;;3.10;2.10;;;24.40;51.20;;;;;;5069160;28;20635;-74
2023/07/14 08:04:14;;;;;;;4.03;2.33;;;24.60;51.00;;;;;;5087096;28;20239;-74
2023/07/14 08:06:40;;;;;;;2.70;2.00;;;24.80;50.40;;;;;;5085913;28;20463;-75
2023/07/14 08:09:06;;;;;;;4.07;2.10;;;24.90;50.40;;;;;;5107213;28;20429;-74
2023/07/14 08:11:33;;;;;;;2.47;1.97;;;25.00;50.10;;;;;;5089878;28;20453;-73
2023/07/14 08:14:02;;;;;;;3.37;2.27;;;25.20;49.70;;;;;;5108581;28;20403;-75
2023/07/14 08:16:29;;;;;;;2.67;1.97;;;25.30;48.80;;;;;;5094025;28;20407;-73
2023/07/14 08:18:54;;;;;;;6.53;2.30;;;25.40;48.70;;;;;;5086739;28;20460;-76
2023/07/14 08:21:20;;;;;;;6.90;2.33;;;25.40;48.50;;;;;;5077771;28;20409;-73
2023/07/14 08:23:46;;;;;;;7.40;3.97;;;25.20;48.80;;;;;;5109790;28;20189;-75
2023/07/14 08:26:12;;;;;;;5.97;3.50;;;25.10;48.90;;;;;;5109811;28;20194;-76
2023/07/14 08:28:39;;;;;;;4.33;2.50;;;25.20;49.40;;;;;;5089577;28;20187;-75
2023/07/14 08:31:09;;;;;;;6.20;3.10;;;25.40;49.10;;;;;;5095829;28;20556;-73
2023/07/14 08:33:35;;;;;;;3.73;2.10;;;25.50;48.40;;;;;;5060026;28;20852;-74
2023/07/14 08:36:03;;;;;;;4.27;2.37;;;25.50;48.50;;;;;;5107453;28;20404;-74
2023/07/14 08:38:34;;;;;;;4.50;2.07;;;25.50;48.40;;;;;;5088439;28;20402;-75
2023/07/14 08:41:15;;;;;;;4.97;2.20;;;25.50;48.70;;;;;;5089467;28;20449;-74
2023/07/14 08:43:48;;;;;;;3.83;1.87;;;25.50;48.30;;;;;;5107727;28;20410;-74
2023/07/14 08:46:23;;;;;;;5.60;2.70;;;25.60;48.20;;;;;;5085568;28;20439;-72
2023/07/14 08:49:25;;;;;;;2.50;2.00;;;25.50;47.60;;;;;;5066171;28;20499;-77
2023/07/14 08:51:57;;;;;;;5.17;2.10;;;25.40;48.40;;;;;;5101791;28;20414;-78
2023/07/14 08:54:26;;;;;;;3.10;2.37;;;25.30;48.10;;;;;;5074115;28;20414;-74
2023/07/14 08:56:52;;;;;;;3.30;2.07;;;25.20;48.00;;;;;;5088726;28;20722;-74
2023/07/14 08:59:30;;;;;;;2.33;2.10;;;25.10;48.40;;;;;;5044057;28;20436;-76
2023/07/14 09:01:59;;;;;;;3.53;2.03;;;25.10;48.60;;;;;;5070636;28;20412;-75
2023/07/14 09:04:26;;;;;;;3.13;2.30;;;25.20;48.50;;;;;;5051565;28;20514;-72
2023/07/14 09:06:52;;;;;;;4.30;2.47;;;25.30;48.20;;;;;;5089783;28;20411;-74
2023/07/14 09:09:22;;;;;;;5.30;2.57;;;25.40;47.70;;;;;;5090694;28;20445;-75
2023/07/14 09:12:04;;;;;;;4.47;2.30;;;25.40;47.50;;;;;;5090250;28;20482;-75
2023/07/14 09:14:51;;;;;;;3.43;2.00;;;25.40;47.50;;;;;;5089070;28;20429;-74
2023/07/14 09:17:39;;;;;;;6.10;2.13;;;25.40;47.20;;;;;;5051813;28;20405;-75
2023/07/14 09:20:26;;;;;;;2.23;2.00;;;25.50;46.80;;;;;;5086328;28;20497;-74
2023/07/14 09:23:11;;;;;;;3.80;1.87;;;25.70;46.70;;;;;;5075033;28;20426;-74
2023/07/14 09:25:48;;;;;;;3.63;2.23;;;25.80;46.40;;;;;;5089339;28;20460;-74
2023/07/14 09:28:38;;;;;;;2.13;1.93;;;25.80;46.40;;;;;;5089654;28;20475;-73
2023/07/14 09:31:21;;;;;;;4.67;2.20;;;25.80;46.20;;;;;;5089380;28;20468;-75
2023/07/14 09:33:53;;;;;;;4.87;2.50;;;25.70;46.50;;;;;;5097685;28;20413;-76
2023/07/14 09:36:19;;;;;;;6.07;2.23;;;25.60;46.80;;;;;;5090116;28;20419;-76
2023/07/14 09:38:55;;;;;;;2.90;1.63;;;25.70;46.90;;;;;;5076464;28;20413;-75
2023/07/14 09:41:25;;;;;;;3.07;2.00;;;25.80;47.00;;;;;;5093110;28;20426;-76
2023/07/14 09:43:57;;;;;;;3.47;2.70;;;25.90;46.80;;;;;;5108352;28;20406;-77
2023/07/14 09:46:24;;;;;;;4.20;2.23;;;26.00;46.20;;;;;;5068644;28;20878;-75
2023/07/14 09:48:56;;;;;;;3.70;2.10;;;26.00;46.10;;;;;;5085229;28;20437;-74
2023/07/14 09:51:25;;;;;;;4.07;2.47;;;25.90;46.30;;;;;;5071178;28;20801;-74
2023/07/14 09:53:59;;;;;;;5.37;2.07;;;25.80;46.50;;;;;;5087902;28;20484;-75
2023/07/14 09:56:36;;;;;;;2.37;1.80;;;25.80;46.70;;;;;;5088336;28;20864;-75
2023/07/14 09:59:07;;;;;;;4.10;2.50;;;26.20;46.50;;;;;;5089053;28;20395;-75
2023/07/14 10:01:33;;;;;;;2.00;1.70;;;26.60;45.40;;;;;;5089101;28;20895;-75
2023/07/14 10:04:11;;;;;;;4.67;2.43;;;27.10;44.50;;;;;;5068980;28;20528;-77
2023/07/14 10:06:37;;;;;;;4.03;1.97;;;27.10;44.30;;;;;;5051459;28;20200;-73
2023/07/14 10:09:11;;;;;;;3.67;2.37;;;27.10;44.30;;;;;;5100820;28;20431;-77
2023/07/14 10:11:48;;;;;;;5.00;2.10;;;27.20;44.10;;;;;;5075922;28;20235;-76
2023/07/14 10:14:27;;;;;;;2.80;1.83;;;27.40;43.20;;;;;;5075372;28;20494;-77
2023/07/14 10:16:56;;;;;;;5.67;2.10;;;27.30;43.30;;;;;;5109823;28;20410;-74
2023/07/14 10:19:32;;;;;;;3.57;2.33;;;27.30;43.40;;;;;;5090140;28;20478;-72
2023/07/14 10:22:04;;;;;;;2.23;1.80;;;27.40;43.30;;;;;;5071876;28;20418;-77
2023/07/14 10:24:31;;;;;;;5.90;2.33;;;27.40;43.10;;;;;;5071890;28;20402;-76
2023/07/14 10:27:18;;;;;;;4.37;2.70;;;27.50;42.70;;;;;;5072387;28;20402;-77
2023/07/14 10:30:20;;;;;;;4.17;2.73;;;27.70;42.10;;;;;;5069093;28;20454;-79
2023/07/14 10:32:51;;;;;;;3.77;2.23;;;27.90;41.50;;;;;;5023085;28;20415;-76
2023/07/14 10:35:26;;;;;;;2.17;1.90;;;27.90;41.40;;;;;;5048803;28;20415;-77
2023/07/14 10:38:14;;;;;;;5.73;2.20;;;27.90;41.60;;;;;;5048208;28;20894;-76
2023/07/14 10:40:47;;;;;;;3.60;2.40;;;28.10;40.70;;;;;;5050134;28;20936;-75
2023/07/14 10:43:23;;;;;;;3.50;2.73;;;27.90;39.50;;;;;;5066088;28;20425;-73
2023/07/14 10:46:00;;;;;;;2.93;2.10;;;27.70;39.60;;;;;;5050411;28;20713;-76
2023/07/14 10:48:34;;;;;;;5.37;2.87;;;27.60;39.60;;;;;;5049065;28;20471;-75
2023/07/14 10:51:10;;;;;;;6.80;3.07;;;27.80;39.70;;;;;;5049693;28;20463;-77
2023/07/14 10:53:47;;;;;;;5.67;2.60;;;27.80;39.30;;;;;;5037053;28;20626;-75
2023/07/14 10:56:42;;;;;;;7.30;2.67;;;27.90;39.10;;;;;;5074958;28;20690;-76
2023/07/14 10:59:27;;;;;;;2.80;2.13;;;28.00;38.20;;;;;;5099432;28;20486;-75
2023/07/14 11:02:23;;;;;;;4.50;2.60;;;28.20;38.10;;;;;;5058372;28;20456;-76
2023/07/14 11:05:04;;;;;;;5.00;3.10;;;28.60;37.40;;;;;;5019551;28;20453;-77
2023/07/14 11:07:32;;;;;;;3.03;2.70;;;28.60;36.90;;;;;;5090390;28;20412;-76
2023/07/14 11:09:58;;;;;;;3.77;3.07;;;28.40;36.30;;;;;;5087851;28;20459;-77
2023/07/14 11:12:48;;;;;;;5.70;2.67;;;28.40;36.50;;;;;;5070790;28;20431;-78
2023/07/14 11:15:22;;;;;;;4.10;2.93;;;28.50;36.80;;;;;;5072651;28;20486;-76
2023/07/14 11:17:59;;;;;;;8.60;2.90;;;28.70;36.40;;;;;;5082450;28;20870;-76
2023/07/14 11:20:31;;;;;;;3.63;3.10;;;29.00;35.70;;;;;;5070901;28;20430;-76
2023/07/14 11:23:13;;;;;;;7.20;3.67;;;29.10;35.20;;;;;;5086897;28;20423;-75
2023/07/14 11:25:52;;;;;;;3.57;2.33;;;28.90;35.00;;;;;;5087206;28;20403;-77
2023/07/14 11:28:31;;;;;;;4.40;3.23;;;28.80;34.80;;;;;;5090366;28;20476;-75
2023/07/14 11:30:59;;;;;;;4.50;2.80;;;28.50;34.90;;;;;;5068223;28;20496;-72
2023/07/14 11:33:42;;;;;;;2.97;2.37;;;28.30;35.50;;;;;;5047125;28;20401;-77
2023/07/14 11:36:15;;;;;;;3.27;2.93;;;28.10;35.70;;;;;;5071557;28;20481;-74
2023/07/14 11:39:09;;;;;;;8.53;3.30;;;28.10;35.80;;;;;;5071566;28;20870;-76
2023/07/14 11:41:36;;;;;;;4.17;2.90;;;28.10;35.70;;;;;;5086035;28;20428;-78
2023/07/14 11:44:05;;;;;;;4.17;3.10;;;28.30;35.20;;;;;;5085911;28;20460;-76
2023/07/14 11:46:32;;;;;;;6.63;2.57;;;28.10;35.30;;;;;;5068078;28;20488;-75
2023/07/14 11:48:59;;;;;;;4.40;3.50;;;28.00;35.40;;;;;;5065789;28;20408;-76
2023/07/14 11:51:46;;;;;;;5.10;3.00;;;27.90;35.60;;;;;;5064674;28;20462;-75
2023/07/14 11:54:16;;;;;;;3.80;3.40;;;27.80;35.50;;;;;;5063612;28;20654;-77
2023/07/14 11:56:45;;;;;;;7.67;3.87;;;27.80;36.10;;;;;;5064923;28;20389;-73
2023/07/14 11:59:17;;;;;;;3.73;2.77;;;28.00;35.60;;;;;;5067928;28;20494;-74
2023/07/14 12:01:46;;;;;;;5.90;3.50;;;28.10;35.70;;;;;;5076110;28;20483;-76
2023/07/14 12:04:33;;;;;;;6.47;2.93;;;28.20;35.70;;;;;;5064817;28;20546;-76
2023/07/14 12:07:19;;;;;;;3.63;3.10;;;28.20;36.10;;;;;;5071124;28;20402;-76
2023/07/14 12:09:58;;;;;;;4.40;2.83;;;28.30;36.30;;;;;;5084230;28;20466;-75
2023/07/14 12:12:24;;;;;;;4.07;3.07;;;28.40;36.20;;;;;;5066639;28;20765;-74
2023/07/14 12:14:51;;;;;;;4.87;2.60;;;28.40;35.90;;;;;;5084661;28;20420;-75
2023/07/14 12:17:38;;;;;;;4.20;2.63;;;28.40;35.70;;;;;;5044307;28;20270;-74
2023/07/14 12:20:15;;;;;;;3.90;3.03;;;28.40;36.30;;;;;;5056543;28;20451;-74
2023/07/14 12:22:42;;;;;;;2.97;2.20;;;28.50;35.90;;;;;;5085805;28;20425;-77
2023/07/14 12:25:14;;;;;;;7.00;2.73;;;28.60;36.00;;;;;;5087642;28;20430;-76
2023/07/14 12:27:45;;;;;;;9.13;2.70;;;28.80;35.60;;;;;;5069233;28;20407;-74
2023/07/14 12:30:18;;;;;;;4.93;2.77;;;28.80;35.40;;;;;;5076979;28;20471;-76
2023/07/14 12:32:44;;;;;;;3.50;2.97;;;28.80;35.40;;;;;;5049633;28;20848;-73
2023/07/14 12:35:14;;;;;;;4.57;2.37;;;28.80;35.70;;;;;;5070466;28;20456;-77
2023/07/14 12:37:40;;;;;;;4.80;3.00;;;28.90;35.20;;;;;;5068851;28;20174;-75
2023/07/14 12:40:14;;;;;;;3.87;3.40;;;29.00;34.60;;;;;;5072537;28;20593;-77
2023/07/14 12:42:44;;;;;;;4.17;2.73;;;29.10;34.40;;;;;;5054423;28;20404;-77
2023/07/14 12:45:15;;;;;;;4.43;2.70;;;29.40;34.10;;;;;;5072723;28;20504;-79
2023/07/14 12:47:44;;;;;;;3.13;2.83;;;29.70;33.40;;;;;;5095105;28;20419;-77
2023/07/14 12:50:19;;;;;;;3.80;2.80;;;30.00;33.20;;;;;;5077292;28;20465;-77
2023/07/14 12:52:47;;;;;;;3.63;2.80;;;30.40;32.80;;;;;;5091563;28;20408;-77
2023/07/14 12:55:19;;;;;;;4.60;2.70;;;30.70;32.30;;;;;;5076391;28;20408;-78
2023/07/14 12:57:47;;;;;;;4.20;2.67;;;30.90;31.80;;;;;;5088607;28;20408;-77
2023/07/14 13:00:44;;;;;;;3.60;3.00;;;30.90;31.80;;;;;;5064875;28;20514;-75
2023/07/14 13:03:11;;;;;;;4.10;3.00;;;30.90;31.50;;;;;;5063986;28;20443;-75